sensor_id;sensor_type;location;lat;lon;timestamp;P1;durP1;ratioP1;P2;durP2;ratioP2
15681;SDS011;7941;50.966;6.978;2023-03-03T00:01:44;42.83;;;33.60;;
15681;SDS011;7941;50.966;6.978;2023-03-03T00:04:15;46.90;;;36.67;;
15681;SDS011;7941;50.966;6.978;2023-03-03T00:06:43;46.37;;;37.63;;
15681;SDS011;7941;50.966;6.978;2023-03-03T00:09:10;49.23;;;37.70;;
15681;SDS011;7941;50.966;6.978;2023-03-03T00:11:39;45.23;;;37.70;;
15681;SDS011;7941;50.966;6.978;2023-03-03T00:14:14;44.13;;;34.43;;
15681;SDS011;7941;50.966;6.978;2023-03-03T00:16:45;42.53;;;34.23;;
15681;SDS011;7941;50.966;6.978;2023-03-03T00:19:16;47.40;;;36.83;;
15681;SDS011;7941;50.966;6.978;2023-03-03T00:21:48;49.07;;;38.10;;
15681;SDS011;7941;50.966;6.978;2023-03-03T00:26:50;50.13;;;39.33;;
15681;SDS011;7941;50.966;6.978;2023-03-03T00:34:41;45.53;;;35.93;;
15681;SDS011;7941;50.966;6.978;2023-03-03T00:37:25;52.03;;;41.00;;
15681;SDS011;7941;50.966;6.978;2023-03-03T00:40:00;50.00;;;39.73;;
15681;SDS011;7941;50.966;6.978;2023-03-03T00:42:46;47.70;;;39.57;;
15681;SDS011;7941;50.966;6.978;2023-03-03T00:48:05;49.43;;;39.40;;
15681;SDS011;7941;50.966;6.978;2023-03-03T00:50:34;54.10;;;41.97;;
15681;SDS011;7941;50.966;6.978;2023-03-03T00:55:27;51.20;;;39.63;;
15681;SDS011;7941;50.966;6.978;2023-03-03T00:57:53;52.37;;;42.27;;
15681;SDS011;7941;50.966;6.978;2023-03-03T01:00:20;57.57;;;42.83;;
15681;SDS011;7941;50.966;6.978;2023-03-03T01:02:49;51.70;;;40.87;;
15681;SDS011;7941;50.966;6.978;2023-03-03T01:05:19;52.13;;;42.83;;
15681;SDS011;7941;50.966;6.978;2023-03-03T01:07:46;53.87;;;41.40;;
15681;SDS011;7941;50.966;6.978;2023-03-03T01:10:16;53.90;;;42.57;;
15681;SDS011;7941;50.966;6.978;2023-03-03T01:12:45;52.13;;;39.97;;
15681;SDS011;7941;50.966;6.978;2023-03-03T01:15:14;53.87;;;41.10;;
15681;SDS011;7941;50.966;6.978;2023-03-03T01:17:41;54.73;;;43.40;;
15681;SDS011;7941;50.966;6.978;2023-03-03T01:20:13;59.57;;;44.43;;
15681;SDS011;7941;50.966;6.978;2023-03-03T01:22:45;53.00;;;39.93;;
15681;SDS011;7941;50.966;6.978;2023-03-03T01:25:13;53.87;;;40.30;;
15681;SDS011;7941;50.966;6.978;2023-03-03T01:27:43;56.73;;;42.87;;
15681;SDS011;7941;50.966;6.978;2023-03-03T01:30:21;57.93;;;44.23;;
15681;SDS011;7941;50.966;6.978;2023-03-03T01:32:48;42.30;;;33.33;;
15681;SDS011;7941;50.966;6.978;2023-03-03T01:35:16;57.13;;;45.03;;
15681;SDS011;7941;50.966;6.978;2023-03-03T01:37:51;58.77;;;44.70;;
15681;SDS011;7941;50.966;6.978;2023-03-03T01:40:26;62.80;;;45.03;;
15681;SDS011;7941;50.966;6.978;2023-03-03T01:43:01;62.67;;;46.10;;
15681;SDS011;7941;50.966;6.978;2023-03-03T01:48:55;61.60;;;46.57;;
15681;SDS011;7941;50.966;6.978;2023-03-03T01:53:24;61.17;;;44.87;;
15681;SDS011;7941;50.966;6.978;2023-03-03T01:55:58;64.27;;;49.23;;
15681;SDS011;7941;50.966;6.978;2023-03-03T01:58:26;64.27;;;43.40;;
15681;SDS011;7941;50.966;6.978;2023-03-03T02:01:02;56.67;;;41.37;;
15681;SDS011;7941;50.966;6.978;2023-03-03T02:03:32;64.80;;;47.90;;
15681;SDS011;7941;50.966;6.978;2023-03-03T02:06:01;57.20;;;39.77;;
15681;SDS011;7941;50.966;6.978;2023-03-03T02:08:35;59.47;;;45.90;;
15681;SDS011;7941;50.966;6.978;2023-03-03T02:11:05;61.80;;;43.53;;
15681;SDS011;7941;50.966;6.978;2023-03-03T02:13:34;62.17;;;47.07;;
15681;SDS011;7941;50.966;6.978;2023-03-03T02:16:03;64.27;;;47.73;;
15681;SDS011;7941;50.966;6.978;2023-03-03T02:18:30;60.33;;;43.10;;
15681;SDS011;7941;50.966;6.978;2023-03-03T02:21:21;60.87;;;44.03;;
15681;SDS011;7941;50.966;6.978;2023-03-03T02:26:29;57.17;;;39.43;;
15681;SDS011;7941;50.966;6.978;2023-03-03T02:28:59;68.77;;;48.30;;
15681;SDS011;7941;50.966;6.978;2023-03-03T02:31:28;66.47;;;46.93;;
15681;SDS011;7941;50.966;6.978;2023-03-03T02:34:01;57.33;;;42.17;;
15681;SDS011;7941;50.966;6.978;2023-03-03T02:36:28;65.57;;;46.87;;
15681;SDS011;7941;50.966;6.978;2023-03-03T02:39:06;67.37;;;47.57;;
15681;SDS011;7941;50.966;6.978;2023-03-03T02:41:41;59.57;;;40.63;;
15681;SDS011;7941;50.966;6.978;2023-03-03T02:44:13;63.50;;;45.87;;
15681;SDS011;7941;50.966;6.978;2023-03-03T02:46:41;61.07;;;44.57;;
15681;SDS011;7941;50.966;6.978;2023-03-03T02:49:08;61.47;;;42.87;;
15681;SDS011;7941;50.966;6.978;2023-03-03T02:51:35;59.80;;;44.53;;
15681;SDS011;7941;50.966;6.978;2023-03-03T02:54:01;63.70;;;46.53;;
15681;SDS011;7941;50.966;6.978;2023-03-03T02:56:27;65.57;;;45.70;;
15681;SDS011;7941;50.966;6.978;2023-03-03T02:58:54;63.40;;;42.70;;
15681;SDS011;7941;50.966;6.978;2023-03-03T03:01:20;61.47;;;43.10;;
15681;SDS011;7941;50.966;6.978;2023-03-03T03:03:47;63.70;;;43.47;;
15681;SDS011;7941;50.966;6.978;2023-03-03T03:06:13;68.73;;;46.90;;
15681;SDS011;7941;50.966;6.978;2023-03-03T03:08:39;63.60;;;44.47;;
15681;SDS011;7941;50.966;6.978;2023-03-03T03:11:06;64.57;;;45.30;;
15681;SDS011;7941;50.966;6.978;2023-03-03T03:13:32;61.40;;;42.90;;
15681;SDS011;7941;50.966;6.978;2023-03-03T03:15:58;72.20;;;45.90;;
15681;SDS011;7941;50.966;6.978;2023-03-03T03:18:25;67.47;;;47.10;;
15681;SDS011;7941;50.966;6.978;2023-03-03T03:20:51;63.63;;;43.47;;
15681;SDS011;7941;50.966;6.978;2023-03-03T03:23:17;67.03;;;45.47;;
15681;SDS011;7941;50.966;6.978;2023-03-03T03:25:46;58.37;;;41.03;;
15681;SDS011;7941;50.966;6.978;2023-03-03T03:28:13;63.50;;;42.83;;
15681;SDS011;7941;50.966;6.978;2023-03-03T03:30:40;58.33;;;41.13;;
15681;SDS011;7941;50.966;6.978;2023-03-03T03:33:06;62.50;;;42.90;;
15681;SDS011;7941;50.966;6.978;2023-03-03T03:35:33;63.77;;;45.30;;
15681;SDS011;7941;50.966;6.978;2023-03-03T03:37:59;61.93;;;44.53;;
15681;SDS011;7941;50.966;6.978;2023-03-03T03:40:26;60.73;;;41.87;;
15681;SDS011;7941;50.966;6.978;2023-03-03T03:42:52;61.43;;;43.27;;
15681;SDS011;7941;50.966;6.978;2023-03-03T03:45:18;59.90;;;42.53;;
15681;SDS011;7941;50.966;6.978;2023-03-03T03:47:45;59.17;;;40.50;;
15681;SDS011;7941;50.966;6.978;2023-03-03T03:50:11;66.77;;;44.93;;
15681;SDS011;7941;50.966;6.978;2023-03-03T03:52:37;62.70;;;44.97;;
15681;SDS011;7941;50.966;6.978;2023-03-03T03:55:03;64.67;;;46.23;;
15681;SDS011;7941;50.966;6.978;2023-03-03T03:57:30;66.43;;;43.13;;
15681;SDS011;7941;50.966;6.978;2023-03-03T03:59:56;63.37;;;44.33;;
15681;SDS011;7941;50.966;6.978;2023-03-03T04:02:22;57.50;;;37.97;;
15681;SDS011;7941;50.966;6.978;2023-03-03T04:04:48;54.53;;;36.40;;
15681;SDS011;7941;50.966;6.978;2023-03-03T04:07:15;59.43;;;41.57;;
15681;SDS011;7941;50.966;6.978;2023-03-03T04:09:41;55.23;;;39.03;;
15681;SDS011;7941;50.966;6.978;2023-03-03T04:12:07;50.83;;;36.07;;
15681;SDS011;7941;50.966;6.978;2023-03-03T04:14:33;54.57;;;38.43;;
15681;SDS011;7941;50.966;6.978;2023-03-03T04:17:00;51.93;;;35.53;;
15681;SDS011;7941;50.966;6.978;2023-03-03T04:19:26;51.70;;;38.37;;
15681;SDS011;7941;50.966;6.978;2023-03-03T04:21:52;50.47;;;37.27;;
15681;SDS011;7941;50.966;6.978;2023-03-03T04:24:18;50.33;;;36.17;;
15681;SDS011;7941;50.966;6.978;2023-03-03T04:26:44;49.30;;;34.37;;
15681;SDS011;7941;50.966;6.978;2023-03-03T04:29:10;50.60;;;37.23;;
15681;SDS011;7941;50.966;6.978;2023-03-03T04:31:36;55.53;;;39.17;;
15681;SDS011;7941;50.966;6.978;2023-03-03T04:34:03;51.43;;;36.80;;
15681;SDS011;7941;50.966;6.978;2023-03-03T04:36:29;51.80;;;36.87;;
15681;SDS011;7941;50.966;6.978;2023-03-03T04:38:55;53.77;;;39.00;;
15681;SDS011;7941;50.966;6.978;2023-03-03T04:41:21;51.53;;;34.90;;
15681;SDS011;7941;50.966;6.978;2023-03-03T04:43:47;50.97;;;35.93;;
15681;SDS011;7941;50.966;6.978;2023-03-03T04:46:14;50.23;;;35.00;;
15681;SDS011;7941;50.966;6.978;2023-03-03T04:48:40;49.33;;;34.53;;
15681;SDS011;7941;50.966;6.978;2023-03-03T04:51:06;47.97;;;35.67;;
15681;SDS011;7941;50.966;6.978;2023-03-03T04:53:32;51.07;;;37.37;;
15681;SDS011;7941;50.966;6.978;2023-03-03T04:56:00;50.87;;;37.87;;
15681;SDS011;7941;50.966;6.978;2023-03-03T04:58:26;47.83;;;35.60;;
15681;SDS011;7941;50.966;6.978;2023-03-03T05:00:53;46.67;;;33.80;;
15681;SDS011;7941;50.966;6.978;2023-03-03T05:03:19;43.53;;;31.33;;
15681;SDS011;7941;50.966;6.978;2023-03-03T05:05:46;50.10;;;34.53;;
15681;SDS011;7941;50.966;6.978;2023-03-03T05:08:12;45.83;;;35.10;;
15681;SDS011;7941;50.966;6.978;2023-03-03T05:10:39;48.60;;;35.70;;
15681;SDS011;7941;50.966;6.978;2023-03-03T05:13:05;46.63;;;33.90;;
15681;SDS011;7941;50.966;6.978;2023-03-03T05:15:32;44.67;;;34.53;;
15681;SDS011;7941;50.966;6.978;2023-03-03T05:17:58;51.30;;;34.50;;
15681;SDS011;7941;50.966;6.978;2023-03-03T05:20:24;49.53;;;36.47;;
15681;SDS011;7941;50.966;6.978;2023-03-03T05:22:50;46.97;;;33.90;;
15681;SDS011;7941;50.966;6.978;2023-03-03T05:25:17;45.80;;;32.33;;
15681;SDS011;7941;50.966;6.978;2023-03-03T05:27:43;48.77;;;36.57;;
15681;SDS011;7941;50.966;6.978;2023-03-03T05:30:10;48.27;;;35.37;;
15681;SDS011;7941;50.966;6.978;2023-03-03T05:32:36;47.43;;;32.20;;
15681;SDS011;7941;50.966;6.978;2023-03-03T05:35:03;46.20;;;33.20;;
15681;SDS011;7941;50.966;6.978;2023-03-03T05:37:29;47.43;;;33.73;;
15681;SDS011;7941;50.966;6.978;2023-03-03T05:39:55;45.10;;;33.20;;
15681;SDS011;7941;50.966;6.978;2023-03-03T05:42:21;42.53;;;33.63;;
15681;SDS011;7941;50.966;6.978;2023-03-03T05:44:48;45.07;;;33.30;;
15681;SDS011;7941;50.966;6.978;2023-03-03T05:47:14;42.40;;;31.70;;
15681;SDS011;7941;50.966;6.978;2023-03-03T05:49:40;44.60;;;33.23;;
15681;SDS011;7941;50.966;6.978;2023-03-03T05:52:06;42.93;;;32.60;;
15681;SDS011;7941;50.966;6.978;2023-03-03T05:54:34;44.60;;;33.30;;
15681;SDS011;7941;50.966;6.978;2023-03-03T05:57:00;42.90;;;33.40;;
15681;SDS011;7941;50.966;6.978;2023-03-03T05:59:26;41.33;;;31.13;;
15681;SDS011;7941;50.966;6.978;2023-03-03T06:01:52;39.23;;;30.93;;
15681;SDS011;7941;50.966;6.978;2023-03-03T06:04:19;40.57;;;31.27;;
15681;SDS011;7941;50.966;6.978;2023-03-03T06:06:45;40.33;;;30.17;;
15681;SDS011;7941;50.966;6.978;2023-03-03T06:09:11;40.20;;;30.40;;
15681;SDS011;7941;50.966;6.978;2023-03-03T06:11:37;38.57;;;30.07;;
15681;SDS011;7941;50.966;6.978;2023-03-03T06:14:03;45.33;;;32.73;;
15681;SDS011;7941;50.966;6.978;2023-03-03T06:16:30;36.90;;;30.37;;
15681;SDS011;7941;50.966;6.978;2023-03-03T06:18:56;39.60;;;31.47;;
15681;SDS011;7941;50.966;6.978;2023-03-03T06:21:22;37.50;;;29.23;;
15681;SDS011;7941;50.966;6.978;2023-03-03T06:23:48;39.23;;;29.27;;
15681;SDS011;7941;50.966;6.978;2023-03-03T06:26:14;40.10;;;30.07;;
15681;SDS011;7941;50.966;6.978;2023-03-03T06:28:40;42.40;;;31.63;;
15681;SDS011;7941;50.966;6.978;2023-03-03T06:31:06;39.50;;;30.80;;
15681;SDS011;7941;50.966;6.978;2023-03-03T06:33:32;38.77;;;30.03;;
15681;SDS011;7941;50.966;6.978;2023-03-03T06:35:59;42.93;;;33.20;;
15681;SDS011;7941;50.966;6.978;2023-03-03T06:38:25;42.93;;;31.83;;
15681;SDS011;7941;50.966;6.978;2023-03-03T06:40:51;42.33;;;31.73;;
15681;SDS011;7941;50.966;6.978;2023-03-03T06:43:17;45.30;;;33.70;;
15681;SDS011;7941;50.966;6.978;2023-03-03T06:45:44;43.10;;;34.10;;
15681;SDS011;7941;50.966;6.978;2023-03-03T06:48:10;43.20;;;31.60;;
15681;SDS011;7941;50.966;6.978;2023-03-03T06:50:36;41.57;;;29.90;;
15681;SDS011;7941;50.966;6.978;2023-03-03T06:55:35;38.33;;;26.80;;
15681;SDS011;7941;50.966;6.978;2023-03-03T06:58:04;37.73;;;28.93;;
15681;SDS011;7941;50.966;6.978;2023-03-03T07:00:30;36.77;;;28.60;;
15681;SDS011;7941;50.966;6.978;2023-03-03T07:02:58;39.60;;;29.10;;
15681;SDS011;7941;50.966;6.978;2023-03-03T07:05:25;38.20;;;28.43;;
15681;SDS011;7941;50.966;6.978;2023-03-03T07:07:53;36.90;;;28.57;;
15681;SDS011;7941;50.966;6.978;2023-03-03T07:10:21;37.40;;;27.67;;
15681;SDS011;7941;50.966;6.978;2023-03-03T07:12:47;36.83;;;27.80;;
15681;SDS011;7941;50.966;6.978;2023-03-03T07:15:28;36.13;;;25.83;;
15681;SDS011;7941;50.966;6.978;2023-03-03T07:17:55;36.50;;;27.77;;
15681;SDS011;7941;50.966;6.978;2023-03-03T07:20:31;35.67;;;24.93;;
15681;SDS011;7941;50.966;6.978;2023-03-03T07:22:59;36.70;;;28.53;;
15681;SDS011;7941;50.966;6.978;2023-03-03T07:25:30;38.43;;;29.93;;
15681;SDS011;7941;50.966;6.978;2023-03-03T07:28:00;36.20;;;28.83;;
15681;SDS011;7941;50.966;6.978;2023-03-03T07:30:36;37.63;;;29.77;;
15681;SDS011;7941;50.966;6.978;2023-03-03T07:33:04;36.07;;;27.83;;
15681;SDS011;7941;50.966;6.978;2023-03-03T07:35:40;34.87;;;28.97;;
15681;SDS011;7941;50.966;6.978;2023-03-03T07:40:40;40.33;;;29.10;;
15681;SDS011;7941;50.966;6.978;2023-03-03T07:45:43;35.33;;;27.03;;
15681;SDS011;7941;50.966;6.978;2023-03-03T07:50:39;34.33;;;27.77;;
15681;SDS011;7941;50.966;6.978;2023-03-03T07:53:11;34.20;;;27.30;;
15681;SDS011;7941;50.966;6.978;2023-03-03T07:55:39;33.83;;;24.87;;
15681;SDS011;7941;50.966;6.978;2023-03-03T08:03:16;37.63;;;29.63;;
15681;SDS011;7941;50.966;6.978;2023-03-03T08:05:47;36.03;;;28.57;;
15681;SDS011;7941;50.966;6.978;2023-03-03T08:08:35;33.47;;;26.73;;
15681;SDS011;7941;50.966;6.978;2023-03-03T08:11:01;34.53;;;27.40;;
15681;SDS011;7941;50.966;6.978;2023-03-03T08:13:34;33.63;;;27.17;;
15681;SDS011;7941;50.966;6.978;2023-03-03T08:18:35;30.53;;;22.27;;
15681;SDS011;7941;50.966;6.978;2023-03-03T08:21:07;30.17;;;24.80;;
15681;SDS011;7941;50.966;6.978;2023-03-03T08:23:33;31.00;;;24.40;;
15681;SDS011;7941;50.966;6.978;2023-03-03T08:26:00;29.93;;;24.23;;
15681;SDS011;7941;50.966;6.978;2023-03-03T08:28:26;32.70;;;25.23;;
15681;SDS011;7941;50.966;6.978;2023-03-03T08:30:53;28.80;;;24.03;;
15681;SDS011;7941;50.966;6.978;2023-03-03T08:33:19;30.60;;;24.60;;
15681;SDS011;7941;50.966;6.978;2023-03-03T08:35:45;28.50;;;24.10;;
15681;SDS011;7941;50.966;6.978;2023-03-03T08:38:14;29.37;;;22.93;;
15681;SDS011;7941;50.966;6.978;2023-03-03T08:40:40;28.23;;;23.93;;
15681;SDS011;7941;50.966;6.978;2023-03-03T08:43:07;31.63;;;25.53;;
15681;SDS011;7941;50.966;6.978;2023-03-03T08:45:33;30.67;;;24.90;;
15681;SDS011;7941;50.966;6.978;2023-03-03T08:48:00;29.70;;;23.63;;
15681;SDS011;7941;50.966;6.978;2023-03-03T08:50:27;28.83;;;23.00;;
15681;SDS011;7941;50.966;6.978;2023-03-03T08:52:53;26.40;;;21.43;;
15681;SDS011;7941;50.966;6.978;2023-03-03T08:55:20;29.73;;;22.50;;
15681;SDS011;7941;50.966;6.978;2023-03-03T08:57:46;26.37;;;21.10;;
15681;SDS011;7941;50.966;6.978;2023-03-03T09:00:13;25.27;;;22.07;;
15681;SDS011;7941;50.966;6.978;2023-03-03T09:02:40;25.87;;;21.47;;
15681;SDS011;7941;50.966;6.978;2023-03-03T09:05:07;27.47;;;23.17;;
15681;SDS011;7941;50.966;6.978;2023-03-03T09:07:33;33.50;;;25.17;;
15681;SDS011;7941;50.966;6.978;2023-03-03T09:09:59;36.77;;;27.53;;
15681;SDS011;7941;50.966;6.978;2023-03-03T09:12:30;37.37;;;27.83;;
15681;SDS011;7941;50.966;6.978;2023-03-03T09:15:07;35.37;;;26.30;;
15681;SDS011;7941;50.966;6.978;2023-03-03T09:17:37;34.57;;;27.27;;
15681;SDS011;7941;50.966;6.978;2023-03-03T09:22:48;35.33;;;28.43;;
15681;SDS011;7941;50.966;6.978;2023-03-03T09:25:22;37.20;;;28.70;;
15681;SDS011;7941;50.966;6.978;2023-03-03T09:27:52;36.33;;;26.67;;
15681;SDS011;7941;50.966;6.978;2023-03-03T09:32:48;30.63;;;25.20;;
15681;SDS011;7941;50.966;6.978;2023-03-03T09:49:04;34.73;;;27.53;;
15681;SDS011;7941;50.966;6.978;2023-03-03T09:54:05;33.10;;;26.40;;
15681;SDS011;7941;50.966;6.978;2023-03-03T09:57:16;30.40;;;22.00;;
15681;SDS011;7941;50.966;6.978;2023-03-03T09:59:48;29.87;;;22.00;;
15681;SDS011;7941;50.966;6.978;2023-03-03T10:10:05;32.73;;;25.27;;
15681;SDS011;7941;50.966;6.978;2023-03-03T10:12:46;30.97;;;23.50;;
15681;SDS011;7941;50.966;6.978;2023-03-03T10:15:31;38.97;;;27.83;;
15681;SDS011;7941;50.966;6.978;2023-03-03T10:25:34;37.77;;;26.27;;
15681;SDS011;7941;50.966;6.978;2023-03-03T10:38:30;36.20;;;27.47;;
15681;SDS011;7941;50.966;6.978;2023-03-03T10:41:12;37.13;;;29.97;;
15681;SDS011;7941;50.966;6.978;2023-03-03T10:46:44;39.07;;;29.50;;
15681;SDS011;7941;50.966;6.978;2023-03-03T10:49:26;35.27;;;27.00;;
15681;SDS011;7941;50.966;6.978;2023-03-03T11:02:39;34.57;;;27.57;;
15681;SDS011;7941;50.966;6.978;2023-03-03T11:05:21;37.33;;;28.53;;
15681;SDS011;7941;50.966;6.978;2023-03-03T11:23:54;38.57;;;29.10;;
15681;SDS011;7941;50.966;6.978;2023-03-03T11:34:42;32.40;;;24.83;;
15681;SDS011;7941;50.966;6.978;2023-03-03T11:37:15;33.97;;;26.00;;
15681;SDS011;7941;50.966;6.978;2023-03-03T11:39:42;40.97;;;27.00;;
15681;SDS011;7941;50.966;6.978;2023-03-03T11:44:54;42.33;;;28.57;;
15681;SDS011;7941;50.966;6.978;2023-03-03T11:47:23;46.27;;;32.30;;
15681;SDS011;7941;50.966;6.978;2023-03-03T11:49:55;43.10;;;32.57;;
15681;SDS011;7941;50.966;6.978;2023-03-03T11:52:27;43.80;;;32.70;;
15681;SDS011;7941;50.966;6.978;2023-03-03T11:57:42;39.53;;;30.57;;
15681;SDS011;7941;50.966;6.978;2023-03-03T12:05:08;31.53;;;24.20;;
15681;SDS011;7941;50.966;6.978;2023-03-03T12:13:38;36.13;;;28.57;;
15681;SDS011;7941;50.966;6.978;2023-03-03T12:18:36;33.53;;;28.20;;
15681;SDS011;7941;50.966;6.978;2023-03-03T12:26:43;39.53;;;29.10;;
15681;SDS011;7941;50.966;6.978;2023-03-03T12:31:43;36.63;;;28.83;;
15681;SDS011;7941;50.966;6.978;2023-03-03T12:36:55;43.23;;;34.70;;
15681;SDS011;7941;50.966;6.978;2023-03-03T12:47:54;37.13;;;30.03;;
15681;SDS011;7941;50.966;6.978;2023-03-03T13:06:06;37.60;;;29.27;;
15681;SDS011;7941;50.966;6.978;2023-03-03T13:08:43;38.70;;;30.97;;
15681;SDS011;7941;50.966;6.978;2023-03-03T13:11:30;40.60;;;31.23;;
15681;SDS011;7941;50.966;6.978;2023-03-03T13:14:10;37.23;;;30.00;;
15681;SDS011;7941;50.966;6.978;2023-03-03T13:16:42;33.37;;;25.47;;
15681;SDS011;7941;50.966;6.978;2023-03-03T13:19:19;35.90;;;26.27;;
15681;SDS011;7941;50.966;6.978;2023-03-03T13:21:48;34.90;;;25.43;;
15681;SDS011;7941;50.966;6.978;2023-03-03T13:29:18;34.23;;;28.40;;
15681;SDS011;7941;50.966;6.978;2023-03-03T13:34:35;37.73;;;28.07;;
15681;SDS011;7941;50.966;6.978;2023-03-03T13:39:32;37.50;;;28.27;;
15681;SDS011;7941;50.966;6.978;2023-03-03T13:42:02;32.20;;;24.00;;
15681;SDS011;7941;50.966;6.978;2023-03-03T13:44:48;29.90;;;21.27;;
15681;SDS011;7941;50.966;6.978;2023-03-03T13:52:27;42.73;;;30.87;;
15681;SDS011;7941;50.966;6.978;2023-03-03T14:00:21;39.27;;;27.33;;
15681;SDS011;7941;50.966;6.978;2023-03-03T14:02:57;38.13;;;28.03;;
15681;SDS011;7941;50.966;6.978;2023-03-03T14:05:32;34.87;;;25.67;;
15681;SDS011;7941;50.966;6.978;2023-03-03T14:11:15;37.90;;;29.00;;
15681;SDS011;7941;50.966;6.978;2023-03-03T14:13:34;40.13;;;29.17;;
15681;SDS011;7941;50.966;6.978;2023-03-03T14:16:08;37.53;;;30.63;;
15681;SDS011;7941;50.966;6.978;2023-03-03T14:21:32;40.30;;;29.57;;
15681;SDS011;7941;50.966;6.978;2023-03-03T14:24:06;38.63;;;27.43;;
15681;SDS011;7941;50.966;6.978;2023-03-03T14:26:56;40.47;;;30.20;;
15681;SDS011;7941;50.966;6.978;2023-03-03T14:31:52;39.63;;;30.97;;
15681;SDS011;7941;50.966;6.978;2023-03-03T14:36:51;44.23;;;31.67;;
15681;SDS011;7941;50.966;6.978;2023-03-03T14:39:25;43.40;;;30.57;;
15681;SDS011;7941;50.966;6.978;2023-03-03T14:41:53;41.73;;;31.70;;
15681;SDS011;7941;50.966;6.978;2023-03-03T14:49:37;43.50;;;30.67;;
15681;SDS011;7941;50.966;6.978;2023-03-03T14:54:43;44.53;;;31.67;;
15681;SDS011;7941;50.966;6.978;2023-03-03T15:00:29;41.63;;;30.23;;
15681;SDS011;7941;50.966;6.978;2023-03-03T15:05:14;50.23;;;34.83;;
15681;SDS011;7941;50.966;6.978;2023-03-03T15:07:41;46.03;;;33.53;;
15681;SDS011;7941;50.966;6.978;2023-03-03T15:10:07;47.03;;;33.07;;
15681;SDS011;7941;50.966;6.978;2023-03-03T15:12:36;47.93;;;31.47;;
15681;SDS011;7941;50.966;6.978;2023-03-03T15:18:08;50.73;;;33.93;;
15681;SDS011;7941;50.966;6.978;2023-03-03T15:38:40;46.87;;;31.80;;
15681;SDS011;7941;50.966;6.978;2023-03-03T15:56:24;45.70;;;32.13;;
15681;SDS011;7941;50.966;6.978;2023-03-03T16:01:34;46.03;;;31.47;;
15681;SDS011;7941;50.966;6.978;2023-03-03T16:04:05;42.87;;;29.10;;
15681;SDS011;7941;50.966;6.978;2023-03-03T16:12:07;40.57;;;27.70;;
15681;SDS011;7941;50.966;6.978;2023-03-03T16:14:39;44.20;;;30.37;;
15681;SDS011;7941;50.966;6.978;2023-03-03T16:24:48;44.03;;;27.30;;
15681;SDS011;7941;50.966;6.978;2023-03-03T16:32:31;44.67;;;29.20;;
15681;SDS011;7941;50.966;6.978;2023-03-03T16:37:37;45.80;;;29.17;;
15681;SDS011;7941;50.966;6.978;2023-03-03T16:45:34;47.50;;;28.03;;
15681;SDS011;7941;50.966;6.978;2023-03-03T16:48:05;48.00;;;29.23;;
15681;SDS011;7941;50.966;6.978;2023-03-03T16:53:14;51.30;;;31.40;;
15681;SDS011;7941;50.966;6.978;2023-03-03T16:55:47;49.10;;;28.50;;
15681;SDS011;7941;50.966;6.978;2023-03-03T17:06:18;45.13;;;27.80;;
15681;SDS011;7941;50.966;6.978;2023-03-03T17:11:25;47.93;;;29.80;;
15681;SDS011;7941;50.966;6.978;2023-03-03T17:14:11;44.20;;;28.70;;
15681;SDS011;7941;50.966;6.978;2023-03-03T17:26:42;47.60;;;30.17;;
15681;SDS011;7941;50.966;6.978;2023-03-03T17:37:17;51.27;;;29.70;;
15681;SDS011;7941;50.966;6.978;2023-03-03T17:47:32;52.83;;;31.63;;
15681;SDS011;7941;50.966;6.978;2023-03-03T17:55:23;57.00;;;32.63;;
15681;SDS011;7941;50.966;6.978;2023-03-03T18:05:35;69.50;;;42.37;;
15681;SDS011;7941;50.966;6.978;2023-03-03T18:21:14;96.37;;;60.93;;
15681;SDS011;7941;50.966;6.978;2023-03-03T18:23:41;94.97;;;57.87;;
15681;SDS011;7941;50.966;6.978;2023-03-03T18:26:27;93.67;;;56.07;;
15681;SDS011;7941;50.966;6.978;2023-03-03T18:29:11;90.50;;;58.97;;
15681;SDS011;7941;50.966;6.978;2023-03-03T18:34:32;91.63;;;61.10;;
15681;SDS011;7941;50.966;6.978;2023-03-03T18:42:07;110.47;;;71.57;;
15681;SDS011;7941;50.966;6.978;2023-03-03T18:44:34;110.57;;;68.43;;
15681;SDS011;7941;50.966;6.978;2023-03-03T18:47:00;104.13;;;66.73;;
15681;SDS011;7941;50.966;6.978;2023-03-03T18:54:57;109.63;;;69.93;;
15681;SDS011;7941;50.966;6.978;2023-03-03T18:57:23;114.27;;;68.97;;
15681;SDS011;7941;50.966;6.978;2023-03-03T19:08:01;107.73;;;66.50;;
15681;SDS011;7941;50.966;6.978;2023-03-03T19:10:48;116.40;;;70.47;;
15681;SDS011;7941;50.966;6.978;2023-03-03T19:18:26;115.20;;;71.30;;
15681;SDS011;7941;50.966;6.978;2023-03-03T19:23:30;120.00;;;73.13;;
15681;SDS011;7941;50.966;6.978;2023-03-03T19:34:19;118.80;;;74.53;;
15681;SDS011;7941;50.966;6.978;2023-03-03T19:39:19;132.00;;;79.50;;
15681;SDS011;7941;50.966;6.978;2023-03-03T19:41:52;135.80;;;79.37;;
15681;SDS011;7941;50.966;6.978;2023-03-03T19:44:37;138.70;;;80.83;;
15681;SDS011;7941;50.966;6.978;2023-03-03T19:50:01;147.00;;;82.27;;
15681;SDS011;7941;50.966;6.978;2023-03-03T19:52:36;143.20;;;82.83;;
15681;SDS011;7941;50.966;6.978;2023-03-03T19:55:23;149.80;;;83.70;;
15681;SDS011;7941;50.966;6.978;2023-03-03T19:58:01;141.10;;;82.87;;
15681;SDS011;7941;50.966;6.978;2023-03-03T20:05:47;133.03;;;80.27;;
15681;SDS011;7941;50.966;6.978;2023-03-03T20:26:33;137.03;;;79.87;;
15681;SDS011;7941;50.966;6.978;2023-03-03T20:29:23;133.37;;;80.23;;
15681;SDS011;7941;50.966;6.978;2023-03-03T20:40:30;138.97;;;85.00;;
15681;SDS011;7941;50.966;6.978;2023-03-03T20:53:21;125.73;;;81.43;;
15681;SDS011;7941;50.966;6.978;2023-03-03T20:56:02;128.07;;;80.47;;
15681;SDS011;7941;50.966;6.978;2023-03-03T21:03:33;122.77;;;77.97;;
15681;SDS011;7941;50.966;6.978;2023-03-03T21:08:42;122.67;;;79.67;;
15681;SDS011;7941;50.966;6.978;2023-03-03T21:11:09;117.13;;;76.70;;
15681;SDS011;7941;50.966;6.978;2023-03-03T21:13:46;122.77;;;78.53;;
15681;SDS011;7941;50.966;6.978;2023-03-03T21:19:01;121.67;;;78.37;;
15681;SDS011;7941;50.966;6.978;2023-03-03T21:21:28;116.43;;;76.30;;
15681;SDS011;7941;50.966;6.978;2023-03-03T21:23:55;113.27;;;75.67;;
15681;SDS011;7941;50.966;6.978;2023-03-03T21:29:14;121.20;;;79.50;;
15681;SDS011;7941;50.966;6.978;2023-03-03T21:31:44;126.73;;;85.17;;
15681;SDS011;7941;50.966;6.978;2023-03-03T21:34:43;113.03;;;71.90;;
15681;SDS011;7941;50.966;6.978;2023-03-03T21:37:04;105.00;;;71.57;;
15681;SDS011;7941;50.966;6.978;2023-03-03T21:39:31;110.73;;;72.83;;
15681;SDS011;7941;50.966;6.978;2023-03-03T21:44:43;107.93;;;72.43;;
15681;SDS011;7941;50.966;6.978;2023-03-03T21:47:14;117.50;;;82.07;;
15681;SDS011;7941;50.966;6.978;2023-03-03T21:49:41;110.93;;;77.60;;
15681;SDS011;7941;50.966;6.978;2023-03-03T21:52:08;111.37;;;77.20;;
15681;SDS011;7941;50.966;6.978;2023-03-03T21:54:34;116.10;;;77.60;;
15681;SDS011;7941;50.966;6.978;2023-03-03T21:57:00;114.70;;;73.90;;
15681;SDS011;7941;50.966;6.978;2023-03-03T21:59:27;112.00;;;76.03;;
15681;SDS011;7941;50.966;6.978;2023-03-03T22:01:53;109.10;;;73.47;;
15681;SDS011;7941;50.966;6.978;2023-03-03T22:04:19;109.30;;;73.40;;
15681;SDS011;7941;50.966;6.978;2023-03-03T22:06:45;105.40;;;70.43;;
15681;SDS011;7941;50.966;6.978;2023-03-03T22:09:12;107.80;;;70.10;;
15681;SDS011;7941;50.966;6.978;2023-03-03T22:11:38;108.50;;;69.50;;
15681;SDS011;7941;50.966;6.978;2023-03-03T22:14:05;111.03;;;71.73;;
15681;SDS011;7941;50.966;6.978;2023-03-03T22:16:32;109.97;;;72.17;;
15681;SDS011;7941;50.966;6.978;2023-03-03T22:18:58;107.20;;;70.53;;
15681;SDS011;7941;50.966;6.978;2023-03-03T22:21:24;105.80;;;68.87;;
15681;SDS011;7941;50.966;6.978;2023-03-03T22:23:50;101.10;;;67.50;;